Time;durP1;ratioP1;P1;durP2;ratioP2;P2;SDS_P1;SDS_P2;PMS_P1;PMS_P2;Temp;Humidity;BMP_temperature;BMP_pressure;BME280_temperature;BME280_humidity;BME280_pressure;Samples;Min_cycle;Max_cycle;Signal;HPM_P1;HPM_P2
2024/03/21 00:00:19;;;;;;;22.40;14.90;;;;;;;4.24;70.28;97008.80;108317;1277;22522;-74
2024/03/21 00:03:12;;;;;;;26.10;17.10;;;;;;;4.19;70.23;97009.84;108273;1277;28274;-73
2024/03/21 00:05:45;;;;;;;24.90;17.30;;;;;;;4.20;70.50;97008.54;108260;1277;23065;-74
2024/03/21 00:08:16;;;;;;;24.80;16.50;;;;;;;4.23;70.57;97006.89;108258;1277;22531;-74
2024/03/21 00:10:47;;;;;;;24.00;15.60;;;;;;;4.20;70.49;97007.75;108343;1277;22481;-74
2024/03/21 00:13:19;;;;;;;20.60;14.20;;;;;;;4.17;70.27;97009.27;108239;1277;24266;-74
2024/03/21 00:15:50;;;;;;;20.90;13.30;;;;;;;4.10;70.43;97005.36;108309;1273;22532;-73
2024/03/21 00:18:22;;;;;;;23.70;15.90;;;;;;;4.00;70.46;97007.14;108274;1278;22605;-74
2024/03/21 00:20:53;;;;;;;25.30;16.40;;;;;;;3.96;70.77;97006.64;108300;1278;22539;-74
2024/03/21 00:23:23;;;;;;;24.70;16.20;;;;;;;4.07;71.00;97003.42;108285;1271;22607;-74
2024/03/21 00:25:54;;;;;;;25.70;16.90;;;;;;;4.16;70.95;97006.05;108262;1270;25339;-74
2024/03/21 00:28:26;;;;;;;25.10;17.20;;;;;;;4.28;71.12;97002.88;108325;1275;22574;-74
2024/03/21 00:30:58;;;;;;;26.50;17.00;;;;;;;4.38;70.97;97003.67;108283;1276;22652;-74
2024/03/21 00:33:29;;;;;;;25.20;15.40;;;;;;;4.33;70.80;96999.55;108284;1278;22564;-74
2024/03/21 00:35:59;;;;;;;23.60;15.70;;;;;;;4.30;70.50;96999.60;108273;1270;22694;-74
2024/03/21 00:38:30;;;;;;;23.50;15.00;;;;;;;4.25;70.49;96997.17;108272;1278;22543;-74
2024/03/21 00:41:01;;;;;;;19.90;14.10;;;;;;;4.21;70.51;96996.04;108252;1278;22588;-74
2024/03/21 00:43:32;;;;;;;25.50;16.20;;;;;;;4.19;70.62;96990.21;108290;1277;24413;-74
2024/03/21 00:46:13;;;;;;;21.70;16.20;;;;;;;4.18;70.54;96987.89;108267;1276;22540;-74
2024/03/21 00:48:44;;;;;;;22.80;15.60;;;;;;;4.12;70.51;96987.36;108374;1278;25253;-73
2024/03/21 00:51:15;;;;;;;24.00;15.60;;;;;;;4.08;70.69;96984.48;108320;1277;22609;-73
2024/03/21 00:53:46;;;;;;;24.70;16.20;;;;;;;4.10;70.85;96980.42;108289;1271;25577;-74
2024/03/21 00:56:17;;;;;;;23.60;16.00;;;;;;;4.13;70.72;96980.85;108312;1276;22533;-73
2024/03/21 00:58:48;;;;;;;24.40;15.80;;;;;;;4.13;70.78;96981.29;108302;1278;22566;-73
2024/03/21 01:01:19;;;;;;;22.50;15.70;;;;;;;4.15;70.85;96980.01;108312;1277;22540;-74
2024/03/21 01:03:50;;;;;;;22.30;15.90;;;;;;;4.14;70.87;96975.33;108287;1270;22564;-74
2024/03/21 01:06:21;;;;;;;25.50;15.30;;;;;;;4.12;70.74;96973.96;108232;1278;22526;-74
2024/03/21 01:08:52;;;;;;;24.70;15.90;;;;;;;4.14;70.74;96974.05;108282;1278;25430;-74
2024/03/21 01:11:24;;;;;;;21.70;15.60;;;;;;;4.19;70.80;96974.67;108229;1277;22557;-73
2024/03/21 01:13:57;;;;;;;25.90;15.20;;;;;;;4.19;70.60;96972.63;108254;1273;22709;-74
2024/03/21 01:16:28;;;;;;;23.50;15.80;;;;;;;4.16;70.65;96971.42;108244;1274;22552;-73
2024/03/21 01:18:59;;;;;;;23.40;15.40;;;;;;;4.15;70.60;96968.04;108319;1278;22539;-74
2024/03/21 01:21:30;;;;;;;22.30;15.20;;;;;;;4.21;70.68;96965.21;108248;1272;22533;-74
2024/03/21 01:24:01;;;;;;;24.90;15.90;;;;;;;4.27;70.65;96960.17;108275;1273;22529;-73
2024/03/21 01:26:34;;;;;;;21.30;14.40;;;;;;;4.40;70.45;96956.63;108256;1277;22753;-73
2024/03/21 01:29:08;;;;;;;23.60;15.00;;;;;;;4.39;70.09;96957.92;108276;1278;24223;-74
2024/03/21 01:31:41;;;;;;;21.30;13.80;;;;;;;4.37;69.77;96952.05;108282;1278;24442;-73
2024/03/21 01:34:16;;;;;;;22.10;14.00;;;;;;;4.27;69.60;96945.11;108178;1273;22674;-74
2024/03/21 01:36:47;;;;;;;22.60;14.20;;;;;;;4.24;69.60;96943.89;108237;1271;22528;-73
2024/03/21 01:39:19;;;;;;;22.70;14.90;;;;;;;4.24;69.69;96941.42;108320;1271;25452;-73
2024/03/21 01:41:50;;;;;;;23.60;14.70;;;;;;;4.25;69.59;96938.25;108278;1272;22553;-74
2024/03/21 01:44:21;;;;;;;25.80;16.00;;;;;;;4.22;69.58;96942.38;108274;1271;22538;-74
2024/03/21 01:46:53;;;;;;;25.40;16.70;;;;;;;4.22;69.56;96939.64;108260;1277;22533;-73
2024/03/21 01:49:24;;;;;;;24.40;14.60;;;;;;;4.25;69.57;96940.19;108268;1277;22552;-74
2024/03/21 01:51:55;;;;;;;21.90;14.50;;;;;;;4.29;69.55;96939.95;108271;1278;22536;-74
2024/03/21 01:54:26;;;;;;;23.40;13.50;;;;;;;4.29;69.44;96935.02;108263;1278;25305;-74
2024/03/21 01:56:57;;;;;;;19.10;13.20;;;;;;;4.26;69.23;96940.15;108264;1277;22760;-73
2024/03/21 01:59:28;;;;;;;20.30;14.40;;;;;;;4.18;69.31;96937.66;108288;1278;22542;-73
2024/03/21 02:02:00;;;;;;;21.60;14.80;;;;;;;4.09;69.25;96938.41;108225;1278;22547;-74
2024/03/21 02:04:34;;;;;;;22.70;14.70;;;;;;;4.02;69.29;96934.78;108255;1271;22575;-73
2024/03/21 02:07:09;;;;;;;21.60;14.30;;;;;;;3.97;69.35;96934.11;108241;1278;22631;-74
2024/03/21 02:09:40;;;;;;;24.60;15.60;;;;;;;3.94;69.38;96936.30;108294;1278;22763;-74
2024/03/21 02:12:12;;;;;;;23.20;14.80;;;;;;;3.90;69.43;96934.23;108221;1278;22662;-73
2024/03/21 02:14:44;;;;;;;20.50;14.50;;;;;;;3.87;69.37;96937.54;108371;1278;25369;-74
2024/03/21 02:17:15;;;;;;;19.80;14.20;;;;;;;3.79;69.35;96937.20;108305;1270;22522;-73
2024/03/21 02:19:46;;;;;;;20.90;13.70;;;;;;;3.77;69.40;96933.32;108312;1278;22528;-74
2024/03/21 02:25:09;;;;;;;21.00;13.20;;;;;;;3.71;69.29;96936.06;108311;1278;22555;-74
2024/03/21 02:27:42;;;;;;;20.80;13.40;;;;;;;3.64;69.44;96931.00;108273;1278;25398;-73
2024/03/21 02:30:14;;;;;;;22.60;15.20;;;;;;;3.66;69.68;96930.65;108281;1277;22525;-74
2024/03/21 02:32:45;;;;;;;20.50;13.40;;;;;;;3.73;69.65;96933.69;108223;1278;22617;-74
2024/03/21 02:35:16;;;;;;;19.30;12.70;;;;;;;3.74;69.57;96932.05;108290;1278;22589;-73
2024/03/21 02:37:47;;;;;;;22.00;14.30;;;;;;;3.69;69.31;96935.77;108309;1271;22536;-73
2024/03/21 02:40:18;;;;;;;20.50;13.50;;;;;;;3.62;69.36;96934.90;108270;1278;22523;-74
2024/03/21 02:42:52;;;;;;;22.60;13.60;;;;;;;3.49;69.24;96935.13;108295;1278;24239;-73
2024/03/21 02:45:22;;;;;;;20.40;13.30;;;;;;;3.44;69.48;96933.52;108285;1278;22525;-74
2024/03/21 02:47:53;;;;;;;20.80;13.10;;;;;;;3.42;69.53;96935.58;108231;1278;22549;-74
2024/03/21 02:50:24;;;;;;;20.40;12.20;;;;;;;3.40;69.41;96936.38;108309;1278;22592;-73
2024/03/21 02:52:55;;;;;;;20.90;11.90;;;;;;;3.35;69.43;96938.73;108295;1276;22595;-74
2024/03/21 02:55:26;;;;;;;18.90;12.80;;;;;;;3.30;69.55;96940.98;108283;1278;22533;-73
2024/03/21 02:57:57;;;;;;;20.80;12.90;;;;;;;3.32;69.65;96941.72;108259;1271;22541;-74
2024/03/21 03:00:29;;;;;;;19.70;12.50;;;;;;;3.38;69.77;96939.71;108258;1272;22529;-74
2024/03/21 03:03:00;;;;;;;17.30;12.10;;;;;;;3.37;69.64;96942.61;108272;1278;22528;-73
2024/03/21 03:05:31;;;;;;;20.10;12.70;;;;;;;3.37;69.71;96940.95;108211;1278;24185;-74
2024/03/21 03:08:02;;;;;;;21.40;14.70;;;;;;;3.44;69.81;96940.96;108293;1278;22528;-73
2024/03/21 03:10:33;;;;;;;20.20;14.50;;;;;;;3.49;69.81;96940.05;108249;1278;22642;-74
2024/03/21 03:13:04;;;;;;;19.80;12.30;;;;;;;3.47;69.68;96937.55;108258;1271;22576;-74
2024/03/21 03:15:35;;;;;;;21.50;14.60;;;;;;;3.48;69.76;96939.44;108316;1272;22536;-74
2024/03/21 03:18:10;;;;;;;19.80;13.60;;;;;;;3.49;69.82;96936.95;108289;1276;22541;-74
2024/03/21 03:20:41;;;;;;;21.90;14.40;;;;;;;3.50;69.73;96940.28;108198;1278;22539;-74
2024/03/21 03:23:12;;;;;;;21.30;14.30;;;;;;;3.56;69.89;96938.55;108273;1278;23108;-74
2024/03/21 03:25:43;;;;;;;23.30;14.90;;;;;;;3.65;69.90;96938.80;108265;1271;22917;-73
2024/03/21 03:28:14;;;;;;;25.10;15.60;;;;;;;3.70;69.80;96935.89;108278;1272;22580;-73
2024/03/21 03:30:46;;;;;;;19.70;13.60;;;;;;;3.72;69.79;96937.61;108288;1278;23214;-74
2024/03/21 03:36:06;;;;;;;18.90;13.10;;;;;;;3.69;69.71;96937.64;108210;1271;23359;-73
2024/03/21 03:38:37;;;;;;;23.80;15.30;;;;;;;3.72;69.83;96935.15;108327;1278;26454;-74
2024/03/21 03:41:07;;;;;;;20.40;14.10;;;;;;;3.77;69.75;96934.14;108261;1271;22550;-74
2024/03/21 03:43:38;;;;;;;24.40;14.70;;;;;;;3.77;69.74;96936.63;108291;1278;22586;-73
2024/03/21 03:46:09;;;;;;;20.80;13.20;;;;;;;3.67;69.56;96936.77;108247;1275;24389;-73
2024/03/21 03:48:40;;;;;;;22.00;14.20;;;;;;;3.61;69.57;96935.61;108306;1277;24255;-74
2024/03/21 03:51:11;;;;;;;22.10;14.50;;;;;;;3.62;69.73;96936.36;108277;1272;25411;-74
2024/03/21 03:53:42;;;;;;;24.20;15.20;;;;;;;3.59;69.83;96938.63;108290;1277;22538;-74
2024/03/21 03:56:13;;;;;;;22.80;15.10;;;;;;;3.64;69.91;96937.98;108290;1276;22532;-74
2024/03/21 03:58:46;;;;;;;21.80;13.80;;;;;;;3.68;69.98;96935.27;108269;1277;22693;-74
2024/03/21 04:01:17;;;;;;;21.00;12.10;;;;;;;3.66;69.84;96937.98;108276;1277;24228;-74
2024/03/21 04:03:48;;;;;;;21.50;13.90;;;;;;;3.69;69.92;96937.70;108277;1277;25245;-73
2024/03/21 04:06:19;;;;;;;19.60;13.60;;;;;;;3.70;69.79;96939.35;108257;1277;26460;-74
2024/03/21 04:08:50;;;;;;;22.70;13.80;;;;;;;3.68;69.91;96936.16;108350;1275;22542;-74
2024/03/21 04:11:21;;;;;;;22.30;13.10;;;;;;;3.64;69.88;96938.70;108242;1276;22533;-73
2024/03/21 04:13:52;;;;;;;20.70;12.70;;;;;;;3.64;69.99;96947.00;108320;1277;22587;-74
2024/03/21 04:16:23;;;;;;;21.20;12.70;;;;;;;3.64;69.89;96943.23;108232;1278;22651;-74
2024/03/21 04:18:54;;;;;;;23.50;14.90;;;;;;;3.66;69.97;96945.86;108333;1270;22592;-74
2024/03/21 04:21:25;;;;;;;21.10;14.30;;;;;;;3.67;69.96;96944.00;108292;1277;22539;-73
2024/03/21 04:23:55;;;;;;;21.60;13.20;;;;;;;3.68;70.05;96945.59;108311;1277;22526;-73
2024/03/21 04:26:26;;;;;;;19.90;13.70;;;;;;;3.70;70.13;96946.01;108265;1278;22737;-74
2024/03/21 04:28:57;;;;;;;20.30;13.60;;;;;;;3.71;70.14;96945.93;108324;1271;22957;-74
2024/03/21 04:31:28;;;;;;;18.80;12.00;;;;;;;3.73;70.15;96948.28;108295;1278;23068;-74
2024/03/21 04:33:59;;;;;;;19.70;13.00;;;;;;;3.75;70.17;96947.76;108306;1271;25273;-74
2024/03/21 04:36:31;;;;;;;19.40;13.80;;;;;;;3.78;70.11;96945.45;108283;1278;22541;-71
2024/03/21 04:39:02;;;;;;;20.90;13.20;;;;;;;3.82;70.30;96951.07;108306;1276;24007;-73
2024/03/21 04:41:36;;;;;;;18.80;13.30;;;;;;;3.84;70.18;96955.02;108268;1278;22573;-73
2024/03/21 04:44:07;;;;;;;20.80;13.30;;;;;;;3.87;70.34;96958.06;108299;1278;22545;-73
2024/03/21 04:46:39;;;;;;;20.10;13.10;;;;;;;3.90;70.21;96955.44;108307;1278;22545;-73
2024/03/21 04:49:11;;;;;;;22.60;14.70;;;;;;;3.91;70.20;96957.88;108283;1278;22610;-73
2024/03/21 04:51:41;;;;;;;22.70;14.70;;;;;;;3.91;70.28;96956.62;108302;1277;22549;-73
2024/03/21 04:54:12;;;;;;;22.10;15.00;;;;;;;3.96;70.35;96959.70;108270;1278;26461;-73
2024/03/21 04:56:43;;;;;;;17.60;12.20;;;;;;;3.98;70.10;96957.05;108238;1278;22595;-73
2024/03/21 04:59:14;;;;;;;16.80;11.20;;;;;;;3.95;70.13;96959.36;108295;1278;22525;-73
2024/03/21 05:01:45;;;;;;;19.30;13.00;;;;;;;3.97;70.19;96960.13;108279;1278;22529;-73
2024/03/21 05:04:16;;;;;;;19.40;13.10;;;;;;;3.97;70.16;96960.81;108304;1277;22532;-73
2024/03/21 05:06:47;;;;;;;21.20;13.30;;;;;;;3.99;70.23;96963.73;108242;1274;23497;-73
2024/03/21 05:09:18;;;;;;;19.20;13.50;;;;;;;4.01;70.08;96968.13;108295;1271;22728;-73
2024/03/21 05:11:49;;;;;;;22.60;13.90;;;;;;;4.00;70.02;96970.43;108243;1277;23851;-73
2024/03/21 05:14:19;;;;;;;19.80;14.00;;;;;;;4.00;69.99;96962.98;108305;1277;22538;-73
2024/03/21 05:16:50;;;;;;;19.80;13.20;;;;;;;4.03;70.09;96969.27;108331;1278;24273;-73
2024/03/21 05:19:21;;;;;;;18.40;13.40;;;;;;;4.06;70.14;96969.28;108319;1277;25459;-73
2024/03/21 05:21:54;;;;;;;16.40;12.40;;;;;;;4.10;70.09;96974.92;108293;1277;25306;-73
2024/03/21 05:24:25;;;;;;;16.30;12.00;;;;;;;4.26;70.30;96978.77;108320;1271;24153;-73
2024/03/21 05:26:56;;;;;;;19.40;13.00;;;;;;;4.45;70.03;96980.45;108292;1278;25448;-73
2024/03/21 05:29:27;;;;;;;19.00;13.30;;;;;;;4.60;70.03;96981.30;108323;1277;22660;-73
2024/03/21 05:31:57;;;;;;;19.30;12.60;;;;;;;4.83;69.95;96981.25;108289;1278;24389;-73
2024/03/21 05:34:28;;;;;;;19.40;12.60;;;;;;;5.16;69.99;96987.88;108285;1277;22557;-73
2024/03/21 05:37:00;;;;;;;19.10;13.90;;;;;;;5.63;69.22;96988.84;108320;1277;22696;-73
2024/03/21 05:39:30;;;;;;;20.20;14.10;;;;;;;5.66;68.53;96989.94;108310;1271;22526;-73
2024/03/21 05:42:01;;;;;;;18.40;14.10;;;;;;;5.61;68.27;96987.38;108291;1278;23857;-73
2024/03/21 05:44:31;;;;;;;20.00;13.60;;;;;;;5.60;68.14;96988.67;108305;1271;22565;-73
2024/03/21 05:47:02;;;;;;;19.00;14.00;;;;;;;5.60;67.89;96991.30;108302;1271;22653;-74
2024/03/21 05:49:33;;;;;;;22.50;13.90;;;;;;;5.58;67.93;96989.71;108261;1278;22557;-73
2024/03/21 05:52:06;;;;;;;21.80;14.90;;;;;;;5.60;67.61;96994.40;108286;1278;24254;-73
2024/03/21 05:54:36;;;;;;;19.60;15.10;;;;;;;5.65;67.70;96990.92;108283;1271;22934;-73
2024/03/21 05:57:07;;;;;;;22.60;15.90;;;;;;;6.04;67.74;96986.68;108323;1271;25353;-74
2024/03/21 05:59:37;;;;;;;21.50;15.90;;;;;;;6.48;67.28;96982.66;108291;1277;24230;-73
2024/03/21 06:02:08;;;;;;;21.20;15.10;;;;;;;6.42;66.08;96982.54;108259;1272;22658;-73
2024/03/21 06:04:39;;;;;;;20.20;13.10;;;;;;;6.29;66.08;96987.34;108298;1271;24615;-73
2024/03/21 06:07:09;;;;;;;20.10;14.20;;;;;;;6.21;65.73;96990.29;108162;1278;22525;-74
2024/03/21 06:09:42;;;;;;;19.20;14.20;;;;;;;6.23;65.69;96989.36;108309;1278;23034;-73
2024/03/21 06:12:13;;;;;;;17.80;13.10;;;;;;;6.33;65.66;96985.30;108258;1274;23745;-73
2024/03/21 06:14:43;;;;;;;21.90;15.50;;;;;;;6.35;65.43;96986.91;108313;1277;22564;-73
2024/03/21 06:17:14;;;;;;;16.90;11.10;;;;;;;6.34;65.50;96985.20;108307;1278;22601;-73
2024/03/21 06:19:44;;;;;;;21.10;14.20;;;;;;;6.31;64.97;96987.52;108276;1274;22531;-74
2024/03/21 06:22:15;;;;;;;17.60;13.50;;;;;;;6.47;65.16;96984.03;108346;1278;24519;-74
2024/03/21 06:24:45;;;;;;;16.40;12.30;;;;;;;6.63;64.78;96987.03;108331;1278;22536;-74
2024/03/21 06:27:19;;;;;;;17.00;12.60;;;;;;;6.74;64.11;96986.37;108323;1271;22560;-73
2024/03/21 06:29:49;;;;;;;20.30;13.80;;;;;;;7.06;64.59;96987.86;108322;1278;25426;-75
2024/03/21 06:32:20;;;;;;;18.50;14.10;;;;;;;7.62;63.64;96990.73;108287;1274;22650;-74
2024/03/21 06:34:50;;;;;;;16.40;12.20;;;;;;;7.98;63.13;96994.59;108312;1278;22541;-75
2024/03/21 06:37:20;;;;;;;18.70;12.90;;;;;;;8.08;62.10;96992.99;108318;1278;22565;-75
2024/03/21 06:39:51;;;;;;;19.50;12.40;;;;;;;7.99;61.41;96996.61;108329;1271;22535;-74
2024/03/21 06:42:24;;;;;;;18.30;12.40;;;;;;;8.11;61.34;96991.15;108306;1278;25407;-75
2024/03/21 06:44:54;;;;;;;18.10;13.20;;;;;;;8.39;60.83;96987.42;108422;1271;22529;-72
2024/03/21 06:47:24;;;;;;;18.30;13.90;;;;;;;9.43;61.22;96991.77;108393;1278;22564;-72
2024/03/21 06:49:56;;;;;;;17.00;13.40;;;;;;;10.75;59.70;96988.63;108416;1274;23853;-75
2024/03/21 06:52:27;;;;;;;15.10;12.50;;;;;;;11.64;58.78;96985.64;108410;1278;22525;-74
2024/03/21 06:54:57;;;;;;;14.10;12.20;;;;;;;12.95;57.55;96983.02;108428;1278;22525;-74
2024/03/21 06:57:28;;;;;;;16.50;13.80;;;;;;;13.19;53.37;96980.52;108284;1278;22638;-74
2024/03/21 06:59:59;;;;;;;16.00;13.10;;;;;;;12.54;53.04;96975.91;108322;1278;22539;-75
2024/03/21 07:02:29;;;;;;;15.90;13.40;;;;;;;12.84;52.83;96980.49;108328;1278;22540;-74
2024/03/21 07:04:59;;;;;;;15.30;12.30;;;;;;;12.77;51.94;96976.58;108334;1278;25447;-75
2024/03/21 07:07:30;;;;;;;16.90;13.70;;;;;;;12.28;51.23;96979.41;108301;1277;23050;-73
2024/03/21 07:10:00;;;;;;;15.50;12.80;;;;;;;12.07;51.46;96978.30;108286;1278;22531;-74
2024/03/21 07:12:31;;;;;;;17.50;13.60;;;;;;;11.98;51.76;96979.55;108207;1261;26469;-73
2024/03/21 07:15:02;;;;;;;19.00;13.00;;;;;;;11.94;51.80;96975.38;108316;1278;22531;-73
2024/03/21 07:17:35;;;;;;;17.80;14.20;;;;;;;11.87;51.62;96977.51;108313;1278;22610;-74
2024/03/21 07:20:07;;;;;;;16.70;14.00;;;;;;;12.18;52.02;96980.39;108327;1277;22532;-74
2024/03/21 07:22:38;;;;;;;17.50;13.80;;;;;;;12.99;52.12;96978.78;108332;1277;23061;-74
2024/03/21 07:25:10;;;;;;;17.00;13.50;;;;;;;13.79;51.75;96983.00;108337;1277;22524;-74
2024/03/21 07:27:44;;;;;;;19.30;13.70;;;;;;;14.71;51.21;96980.83;108307;1275;22588;-74
2024/03/21 07:30:19;;;;;;;18.50;13.60;;;;;;;15.31;50.17;96976.30;108315;1277;22516;-74
2024/03/21 07:32:53;;;;;;;15.50;13.00;;;;;;;15.65;49.73;96976.32;108280;1277;22527;-73
2024/03/21 07:35:24;;;;;;;15.10;13.20;;;;;;;16.03;48.13;96971.19;108273;1274;22537;-73
2024/03/21 07:37:54;;;;;;;15.90;13.90;;;;;;;15.72;47.55;96970.14;108321;1277;22564;-74
2024/03/21 07:40:25;;;;;;;14.80;12.40;;;;;;;15.67;47.61;96971.23;108295;1277;22693;-74
2024/03/21 07:42:55;;;;;;;16.60;13.70;;;;;;;15.92;46.84;96975.23;108211;1277;22578;-74
2024/03/21 07:45:28;;;;;;;16.80;14.20;;;;;;;15.83;46.64;96973.27;108304;1277;22524;-74
2024/03/21 07:47:58;;;;;;;16.70;14.20;;;;;;;15.99;46.69;96974.43;108315;1277;22561;-74
2024/03/21 07:50:29;;;;;;;18.20;14.30;;;;;;;16.19;46.65;96974.07;108297;1274;22528;-74
2024/03/21 07:52:59;;;;;;;17.00;14.80;;;;;;;16.37;46.74;96971.96;108286;1277;22532;-74
2024/03/21 07:55:30;;;;;;;19.30;15.10;;;;;;;16.28;45.94;96978.29;108288;1277;25240;-74
2024/03/21 07:58:02;;;;;;;18.80;15.00;;;;;;;16.29;46.08;96978.32;108305;1277;22668;-74
2024/03/21 08:00:33;;;;;;;18.80;15.60;;;;;;;16.61;46.03;96978.78;108284;1277;22541;-74
2024/03/21 08:03:05;;;;;;;18.10;15.80;;;;;;;16.66;44.74;96978.73;108334;1274;23952;-74
2024/03/21 08:05:35;;;;;;;16.20;14.20;;;;;;;16.46;44.48;96977.88;108344;1272;22592;-74
2024/03/21 08:08:06;;;;;;;20.00;16.60;;;;;;;16.75;44.35;96981.68;108286;1277;22571;-74
2024/03/21 08:10:37;;;;;;;19.70;16.70;;;;;;;16.77;44.03;96976.27;108341;1277;22528;-73
2024/03/21 08:13:09;;;;;;;19.30;16.10;;;;;;;16.75;43.98;96977.40;108248;1271;22532;-74
2024/03/21 08:15:39;;;;;;;18.20;15.80;;;;;;;16.89;44.03;96980.98;108254;1277;22654;-74
2024/03/21 08:18:10;;;;;;;18.80;16.30;;;;;;;16.91;43.73;96982.02;108290;1277;22543;-74
2024/03/21 08:20:40;;;;;;;20.10;16.40;;;;;;;17.26;43.40;96978.38;108310;1271;22626;-74
2024/03/21 08:23:11;;;;;;;20.90;17.20;;;;;;;16.94;41.60;96977.81;108295;1267;22541;-74
2024/03/21 08:25:41;;;;;;;21.50;17.50;;;;;;;16.32;41.96;96976.16;108310;1277;22523;-74
2024/03/21 08:28:14;;;;;;;19.90;16.70;;;;;;;16.02;41.91;96978.33;108305;1277;22650;-73
2024/03/21 08:30:46;;;;;;;21.90;17.80;;;;;;;16.02;42.45;96979.71;108284;1276;22538;-74
2024/03/21 08:33:17;;;;;;;20.20;16.20;;;;;;;16.63;42.98;96980.40;108335;1277;22722;-74
2024/03/21 08:35:48;;;;;;;22.00;16.80;;;;;;;16.99;42.22;96976.73;108294;1277;22651;-74
2024/03/21 08:38:18;;;;;;;22.60;18.10;;;;;;;17.50;42.91;96981.74;108304;1271;22527;-74
2024/03/21 08:40:55;;;;;;;22.10;17.10;;;;;;;18.18;42.63;96985.80;108323;1277;22539;-73
2024/03/21 08:43:26;;;;;;;18.20;15.30;;;;;;;19.18;42.79;96985.38;108276;1278;22666;-74
2024/03/21 08:45:56;;;;;;;20.80;16.10;;;;;;;19.40;41.43;96986.62;108269;1271;22530;-73
2024/03/21 08:48:27;;;;;;;20.20;15.60;;;;;;;19.30;40.79;96981.33;108321;1278;22525;-74
2024/03/21 08:50:57;;;;;;;19.60;15.50;;;;;;;18.28;38.44;96982.26;108297;1276;26519;-73
2024/03/21 08:53:28;;;;;;;22.00;16.30;;;;;;;17.14;38.91;96975.92;108286;1274;25432;-74
2024/03/21 08:55:58;;;;;;;23.20;17.80;;;;;;;16.20;39.42;96980.13;108283;1278;22529;-73
2024/03/21 08:58:28;;;;;;;24.30;17.60;;;;;;;15.86;41.03;96978.80;108310;1277;22532;-74
2024/03/21 09:00:59;;;;;;;24.70;18.50;;;;;;;15.81;41.74;96978.82;108343;1278;22551;-73
2024/03/21 09:03:31;;;;;;;30.90;23.50;;;;;;;15.19;40.14;96977.34;108320;1271;23069;-73
2024/03/21 09:06:03;;;;;;;25.80;19.90;;;;;;;14.24;40.70;96981.10;108258;1278;22525;-74
2024/03/21 09:08:34;;;;;;;23.20;18.30;;;;;;;14.00;42.17;96977.97;108319;1271;22675;-74
2024/03/21 09:11:07;;;;;;;23.00;18.70;;;;;;;13.85;42.04;96978.19;108254;1271;22540;-73
2024/03/21 09:13:38;;;;;;;21.80;17.20;;;;;;;13.84;43.35;96981.20;108319;1278;22556;-73
2024/03/21 09:16:10;;;;;;;27.50;21.00;;;;;;;14.21;44.06;96978.75;108315;1278;22651;-73
2024/03/21 09:18:43;;;;;;;24.20;19.40;;;;;;;14.54;44.54;96980.02;108350;1278;24151;-73
2024/03/21 09:21:14;;;;;;;24.10;19.30;;;;;;;14.54;43.09;96979.80;108271;1278;24512;-73
2024/03/21 09:23:45;;;;;;;23.40;18.30;;;;;;;14.02;43.38;96975.27;108308;1278;22769;-73
2024/03/21 09:26:17;;;;;;;24.40;20.00;;;;;;;13.84;44.02;96979.17;108298;1271;25299;-74
2024/03/21 09:28:47;;;;;;;26.40;20.00;;;;;;;13.97;44.77;96976.05;108333;1271;22568;-73
2024/03/21 09:31:23;;;;;;;28.50;22.10;;;;;;;14.12;45.08;96974.90;108324;1277;22539;-73
2024/03/21 09:33:54;;;;;;;32.50;25.70;;;;;;;14.23;45.03;96972.16;108287;1271;22831;-74
2024/03/21 09:36:25;;;;;;;28.90;21.90;;;;;;;13.96;44.62;96968.48;108278;1278;22521;-73
2024/03/21 09:38:56;;;;;;;27.80;22.30;;;;;;;13.54;44.46;96967.20;108300;1271;24269;-73
2024/03/21 09:41:27;;;;;;;29.00;22.10;;;;;;;13.45;45.22;96963.86;108302;1271;22531;-73
2024/03/21 09:43:59;;;;;;;31.10;23.10;;;;;;;13.39;45.24;96963.42;108330;1278;22583;-73
2024/03/21 09:46:36;;;;;;;30.00;22.70;;;;;;;13.13;44.97;96960.11;108307;1278;22522;-73
2024/03/21 09:49:08;;;;;;;29.70;22.90;;;;;;;12.66;44.87;96955.46;108299;1272;23287;-73
2024/03/21 09:51:39;;;;;;;28.50;21.40;;;;;;;12.35;45.59;96951.36;108292;1276;25272;-73
2024/03/21 09:54:11;;;;;;;29.60;22.10;;;;;;;12.30;46.40;96948.98;108319;1272;22569;-73
2024/03/21 09:56:43;;;;;;;26.30;20.90;;;;;;;12.61;46.94;96948.67;108271;1278;22571;-73
2024/03/21 09:59:19;;;;;;;30.50;22.50;;;;;;;12.65;45.99;96950.06;108323;1271;22525;-73
2024/03/21 10:01:50;;;;;;;28.80;22.40;;;;;;;12.50;45.90;96947.61;108290;1278;22533;-73
2024/03/21 10:04:20;;;;;;;28.60;19.80;;;;;;;12.38;46.17;96945.17;108307;1277;22539;-73
2024/03/21 10:06:51;;;;;;;24.20;18.50;;;;;;;12.33;46.07;96947.24;108304;1271;22534;-73
2024/03/21 10:09:21;;;;;;;28.50;21.10;;;;;;;12.23;46.25;96944.53;108271;1279;26489;-73
2024/03/21 10:11:51;;;;;;;29.90;22.80;;;;;;;12.08;46.21;96946.35;108278;1277;22532;-73
2024/03/21 10:14:23;;;;;;;25.40;20.10;;;;;;;12.08;46.97;96935.62;108292;1271;22550;-73
2024/03/21 10:16:54;;;;;;;26.10;20.20;;;;;;;12.19;46.45;96933.07;108263;1278;22565;-73
2024/03/21 10:19:24;;;;;;;25.00;20.20;;;;;;;12.20;46.75;96932.00;108303;1271;25381;-73
2024/03/21 10:21:55;;;;;;;25.90;20.60;;;;;;;12.52;47.77;96926.37;108287;1276;23861;-73
2024/03/21 10:24:27;;;;;;;27.30;21.00;;;;;;;12.92;47.99;96927.07;108292;1256;22532;-72
2024/03/21 10:26:58;;;;;;;23.10;19.30;;;;;;;13.20;47.69;96927.27;108292;1273;22536;-73
2024/03/21 10:29:33;;;;;;;27.70;20.30;;;;;;;13.46;47.92;96923.46;108321;1276;22523;-73
2024/03/21 10:32:06;;;;;;;24.70;19.20;;;;;;;13.71;47.80;96922.18;108283;1278;26575;-73
2024/03/21 10:34:37;;;;;;;25.40;18.80;;;;;;;13.84;47.59;96917.13;108286;1278;22647;-73
2024/03/21 10:37:09;;;;;;;24.50;19.30;;;;;;;13.66;46.43;96912.99;108280;1272;22532;-73
2024/03/21 10:39:39;;;;;;;27.30;21.60;;;;;;;13.32;46.29;96916.47;108253;1270;24503;-73
2024/03/21 10:42:22;;;;;;;30.00;23.20;;;;;;;13.25;46.93;96916.38;108301;1278;22554;-73
2024/03/21 10:44:55;;;;;;;27.10;20.70;;;;;;;13.18;47.29;96917.39;108306;1268;25280;-73
2024/03/21 10:47:28;;;;;;;28.90;21.50;;;;;;;13.32;47.38;96915.13;108292;1278;22559;-73
2024/03/21 10:49:59;;;;;;;26.30;20.90;;;;;;;13.35;46.86;96914.61;108286;1278;22521;-73
2024/03/21 10:52:30;;;;;;;28.90;21.80;;;;;;;13.20;46.24;96913.86;108280;1272;22594;-73
2024/03/21 10:55:03;;;;;;;28.20;22.00;;;;;;;12.90;46.08;96907.83;108292;1278;22537;-73
2024/03/21 10:57:39;;;;;;;29.60;21.10;;;;;;;12.92;47.38;96906.59;108312;1274;22531;-74
2024/03/21 11:00:13;;;;;;;26.20;21.60;;;;;;;13.19;47.74;96908.76;108300;1278;23464;-73
2024/03/21 11:02:44;;;;;;;30.90;22.90;;;;;;;13.37;47.88;96907.45;108357;1276;24311;-73
2024/03/21 11:05:19;;;;;;;36.00;26.40;;;;;;;13.30;46.42;96908.88;108318;1279;22542;-73
2024/03/21 11:07:50;;;;;;;29.70;23.60;;;;;;;13.13;47.51;96905.21;108313;1278;22616;-73
2024/03/21 11:10:24;;;;;;;28.40;23.60;;;;;;;13.31;48.00;96904.08;108335;1278;22571;-73
2024/03/21 11:12:56;;;;;;;30.50;23.60;;;;;;;13.48;47.84;96909.58;108248;1278;22550;-73
2024/03/21 11:15:27;;;;;;;29.60;22.80;;;;;;;13.64;47.92;96907.95;108287;1279;22647;-73
2024/03/21 11:17:58;;;;;;;28.00;22.00;;;;;;;13.71;47.39;96909.13;108323;1278;22550;-73
2024/03/21 11:20:30;;;;;;;30.40;22.50;;;;;;;13.73;47.53;96906.55;108319;1277;22554;-73
2024/03/21 11:23:00;;;;;;;31.60;23.50;;;;;;;13.83;47.60;96908.62;108262;1278;22567;-73
2024/03/21 11:25:33;;;;;;;31.40;23.50;;;;;;;13.94;47.51;96902.89;108302;1277;23080;-72
2024/03/21 11:28:04;;;;;;;32.50;23.50;;;;;;;13.99;46.96;96901.27;108332;1277;23352;-73
2024/03/21 11:30:34;;;;;;;30.30;22.90;;;;;;;13.94;46.75;96900.02;108305;1276;25592;-73
2024/03/21 11:33:06;;;;;;;28.30;22.40;;;;;;;13.82;45.65;96899.85;108283;1278;25353;-73
2024/03/21 11:35:42;;;;;;;31.50;22.20;;;;;;;13.54;44.89;96895.64;108329;1278;22525;-73
2024/03/21 11:38:13;;;;;;;29.40;23.00;;;;;;;13.09;44.18;96895.62;108310;1278;22538;-73